Time;durP1;ratioP1;P1;durP2;ratioP2;P2;SDS_P1;SDS_P2;PMS_P1;PMS_P2;Temp;Humidity;BMP_temperature;BMP_pressure;BME280_temperature;BME280_humidity;BME280_pressure;Samples;Min_cycle;Max_cycle;Signal;HPM_P1;HPM_P2
2021/11/04 00:07:31;;;;;;;133.40;30.13;;;9.90;77.30;;;;;;5000473;28;89267;-92
2021/11/04 00:09:58;;;;;;;119.88;31.92;;;9.90;77.40;;;;;;4983913;28;91203;-93
2021/11/04 00:12:25;;;;;;;115.60;29.38;;;9.90;77.70;;;;;;5000534;28;92034;-93
2021/11/04 00:14:52;;;;;;;126.97;30.75;;;9.90;77.90;;;;;;4984253;28;91621;-93
2021/11/04 00:17:19;;;;;;;104.68;29.60;;;9.90;77.80;;;;;;4984073;28;90598;-93
2021/11/04 00:19:47;;;;;;;124.45;30.83;;;9.90;77.70;;;;;;5000286;28;91811;-93
2021/11/04 00:22:14;;;;;;;99.45;27.95;;;9.90;77.70;;;;;;4983903;28;90943;-93
2021/11/04 00:24:41;;;;;;;101.07;27.00;;;9.90;77.70;;;;;;5000510;28;91439;-92
2021/11/04 00:27:08;;;;;;;192.15;31.73;;;9.90;77.90;;;;;;5000526;28;90660;-92
2021/11/04 00:29:35;;;;;;;94.38;26.90;;;9.80;77.80;;;;;;4983846;28;91916;-92
2021/11/04 00:32:04;;;;;;;88.10;27.45;;;9.80;77.70;;;;;;4983669;28;92082;-92
2021/11/04 00:34:31;;;;;;;102.75;26.92;;;9.80;77.70;;;;;;4984014;28;91789;-92
2021/11/04 00:36:58;;;;;;;101.28;26.73;;;9.80;77.70;;;;;;4984131;28;91287;-93
2021/11/04 00:39:25;;;;;;;113.22;26.70;;;9.80;77.70;;;;;;4983505;28;90280;-93
2021/11/04 00:41:52;;;;;;;97.15;24.63;;;9.80;77.40;;;;;;4982554;28;90717;-92
2021/11/04 00:44:19;;;;;;;95.78;24.20;;;9.70;77.50;;;;;;5016457;28;90518;-92
2021/11/04 00:46:46;;;;;;;128.75;25.55;;;9.60;77.60;;;;;;5000393;28;88260;-92
2021/11/04 00:49:13;;;;;;;76.22;24.45;;;9.70;77.60;;;;;;5000236;28;91228;-92
2021/11/04 00:51:43;;;;;;;109.00;25.08;;;9.70;77.50;;;;;;4983742;28;90638;-93
2021/11/04 00:54:10;;;;;;;274.25;30.92;;;9.70;77.50;;;;;;5000060;28;90403;-92
2021/11/04 00:56:37;;;;;;;105.97;25.85;;;9.70;77.20;;;;;;4983255;28;89312;-92
2021/11/04 00:59:04;;;;;;;87.47;25.38;;;9.70;77.30;;;;;;4983702;28;91554;-92
2021/11/04 01:01:31;;;;;;;114.90;25.42;;;9.70;77.30;;;;;;4999590;28;99823;-92
2021/11/04 01:03:58;;;;;;;104.82;25.35;;;9.60;77.30;;;;;;4983329;28;91356;-92
2021/11/04 01:06:25;;;;;;;126.10;24.20;;;9.60;77.50;;;;;;4999294;28;90277;-92
2021/11/04 01:08:52;;;;;;;154.55;27.38;;;9.50;77.60;;;;;;4999255;28;92161;-92
2021/11/04 01:11:20;;;;;;;129.85;26.58;;;9.50;77.80;;;;;;4999562;28;92310;-93
2021/11/04 01:13:47;;;;;;;191.60;30.70;;;9.50;77.80;;;;;;4999446;28;90830;-92
2021/11/04 01:16:15;;;;;;;263.08;32.42;;;9.50;77.90;;;;;;4982974;28;90827;-92
2021/11/04 01:18:42;;;;;;;244.35;32.92;;;9.50;78.00;;;;;;4983140;28;90530;-92
2021/11/04 01:21:11;;;;;;;181.20;29.38;;;9.50;78.00;;;;;;4982870;28;90605;-92
2021/11/04 01:23:38;;;;;;;202.43;29.85;;;9.50;78.10;;;;;;4982239;28;92374;-92
2021/11/04 01:26:06;;;;;;;143.48;26.90;;;9.50;78.20;;;;;;4983553;28;89176;-93
2021/11/04 01:28:34;;;;;;;160.75;28.83;;;9.50;78.10;;;;;;4999281;28;91572;-93
2021/11/04 01:31:01;;;;;;;166.02;25.35;;;9.50;78.00;;;;;;4982742;28;92120;-92
2021/11/04 01:33:28;;;;;;;159.35;28.90;;;9.50;77.90;;;;;;4998892;28;91838;-92
2021/11/04 01:35:55;;;;;;;185.90;26.67;;;9.50;77.90;;;;;;4982671;28;89598;-92
2021/11/04 01:38:22;;;;;;;170.82;26.67;;;9.50;78.40;;;;;;4982643;28;91226;-92
2021/11/04 01:40:50;;;;;;;145.30;25.02;;;9.60;77.80;;;;;;4982697;28;89755;-92
2021/11/04 01:43:18;;;;;;;126.25;24.48;;;9.60;77.60;;;;;;4999073;28;90794;-92
2021/11/04 01:45:48;;;;;;;110.30;23.88;;;9.50;77.40;;;;;;4999174;28;89875;-92
2021/11/04 01:48:17;;;;;;;123.15;24.33;;;9.50;77.40;;;;;;4999096;28;90976;-93
2021/11/04 01:50:44;;;;;;;103.82;23.02;;;9.50;77.40;;;;;;4982853;28;92272;-92
2021/11/04 01:53:11;;;;;;;115.15;24.58;;;9.50;77.50;;;;;;4981921;28;91841;-92
2021/11/04 01:55:40;;;;;;;112.90;22.08;;;9.50;77.60;;;;;;4982317;28;89545;-93
2021/11/04 01:58:06;;;;;;;182.82;27.23;;;9.50;77.60;;;;;;4998571;28;91849;-92
2021/11/04 02:00:34;;;;;;;200.35;26.83;;;9.50;77.60;;;;;;4982497;28;91260;-92
2021/11/04 02:03:31;;;;;;;109.95;23.70;;;9.40;77.70;;;;;;4982436;28;91569;-92
2021/11/04 02:06:25;;;;;;;205.88;29.10;;;9.40;77.90;;;;;;4998853;28;88441;-92
2021/11/04 02:09:06;;;;;;;104.50;21.03;;;9.40;77.80;;;;;;4998474;28;90794;-92
2021/11/04 02:12:01;;;;;;;177.80;25.40;;;9.40;77.80;;;;;;4999004;28;91905;-92
2021/11/04 02:14:32;;;;;;;;;;;9.40;77.90;;;;;;4999259;28;91559;-93
2021/11/04 02:17:01;;;;;;;85.88;19.20;;;9.40;77.80;;;;;;5001502;28;86991;-92
2021/11/04 02:19:45;;;;;;;122.55;18.85;;;9.40;77.60;;;;;;4982259;28;91495;-93
2021/11/04 02:22:42;;;;;;;77.00;16.95;;;9.40;77.50;;;;;;4998895;28;91826;-92
2021/11/04 02:25:19;;;;;;;67.68;16.27;;;9.30;77.30;;;;;;4998766;28;91128;-93
2021/11/04 02:27:50;;;;;;;50.25;15.55;;;9.30;77.20;;;;;;4981966;28;90784;-92
2021/11/04 02:30:19;;;;;;;98.88;18.88;;;9.30;77.00;;;;;;4998350;28;91339;-92
2021/11/04 02:32:47;;;;;;;87.07;19.15;;;9.30;77.00;;;;;;4998472;28;91833;-92
2021/11/04 02:35:15;;;;;;;67.38;16.85;;;9.30;77.10;;;;;;4998590;28;90327;-92
2021/11/04 02:37:44;;;;;;;87.55;17.60;;;9.30;77.30;;;;;;4982136;28;89811;-92
2021/11/04 02:40:11;;;;;;;135.75;21.38;;;9.30;77.80;;;;;;4998112;28;95989;-91
2021/11/04 02:42:39;;;;;;;102.82;20.17;;;9.20;77.40;;;;;;4998793;28;91315;-92
2021/11/04 02:54:53;;;;;;;108.95;19.98;;;9.10;77.80;;;;;;4996323;28;88940;-93
2021/11/04 02:57:21;;;;;;;86.22;19.35;;;9.10;77.90;;;;;;4998209;28;92438;-92
2021/11/04 02:59:49;;;;;;;101.90;18.92;;;9.10;77.90;;;;;;4998032;28;91289;-92
2021/11/04 03:02:17;;;;;;;313.80;30.42;;;9.00;77.80;;;;;;4998523;28;90307;-92
2021/11/04 03:04:44;;;;;;;100.97;18.38;;;9.00;77.80;;;;;;4981889;28;91285;-92
2021/11/04 03:07:11;;;;;;;107.50;19.10;;;8.80;77.50;;;;;;5001131;28;91960;-92
2021/11/04 03:09:38;;;;;;;137.10;18.77;;;8.70;78.10;;;;;;4984968;28;91839;-92
2021/11/04 03:12:07;;;;;;;138.30;21.13;;;8.60;78.40;;;;;;5001735;28;90747;-93
2021/11/04 03:14:34;;;;;;;95.22;19.75;;;8.60;78.70;;;;;;5002248;28;90232;-92
2021/11/04 03:17:04;;;;;;;69.07;17.13;;;8.60;78.70;;;;;;4985296;28;91658;-92
2021/11/04 03:19:31;;;;;;;131.85;21.05;;;8.70;78.70;;;;;;5001364;28;91713;-93
2021/11/04 03:22:01;;;;;;;99.13;18.80;;;8.70;78.40;;;;;;5001386;28;90490;-93
2021/11/04 03:24:29;;;;;;;94.25;19.10;;;8.60;78.60;;;;;;4985435;28;90376;-92
2021/11/04 03:27:06;;;;;;;90.47;17.30;;;8.60;78.40;;;;;;5001346;28;91136;-93
2021/11/04 03:29:37;;;;;;;135.32;20.73;;;8.40;78.90;;;;;;5001452;28;91343;-92
2021/11/04 03:32:06;;;;;;;192.80;27.35;;;8.40;78.50;;;;;;4984793;28;89948;-92
2021/11/04 03:34:35;;;;;;;97.95;18.73;;;8.40;79.00;;;;;;5001276;28;91465;-93
2021/11/04 03:37:05;;;;;;;89.78;20.02;;;8.50;78.80;;;;;;5001323;28;90695;-92
2021/11/04 03:39:34;;;;;;;84.65;18.83;;;8.50;78.60;;;;;;5001015;28;91687;-92
2021/11/04 03:42:02;;;;;;;162.93;23.70;;;8.50;78.50;;;;;;5000874;28;90966;-92
2021/11/04 03:44:30;;;;;;;106.28;19.20;;;8.50;78.50;;;;;;4999721;28;91286;-92
2021/11/04 03:46:57;;;;;;;277.90;29.88;;;8.50;78.30;;;;;;4984370;28;91067;-92
2021/11/04 03:49:25;;;;;;;193.30;25.67;;;8.50;78.10;;;;;;5000932;28;90739;-92
2021/11/04 03:51:54;;;;;;;150.52;23.73;;;8.50;78.20;;;;;;4984593;28;89676;-92
2021/11/04 03:54:23;;;;;;;175.73;25.55;;;8.50;78.30;;;;;;4984589;28;91370;-92
2021/11/04 03:56:51;;;;;;;148.57;25.02;;;8.50;78.50;;;;;;5001039;28;90804;-93
2021/11/04 03:59:19;;;;;;;95.82;23.42;;;8.50;78.80;;;;;;5000855;28;91434;-92
2021/11/04 04:01:47;;;;;;;138.00;25.13;;;8.50;78.80;;;;;;5000980;28;90428;-91
2021/11/04 04:04:14;;;;;;;119.55;25.52;;;8.50;79.00;;;;;;5000285;28;97174;-92
2021/11/04 04:06:41;;;;;;;80.18;22.70;;;8.60;79.30;;;;;;5000346;28;91799;-92
2021/11/04 04:09:10;;;;;;;72.90;20.23;;;8.60;79.30;;;;;;4983871;28;91765;-92
2021/11/04 04:11:37;;;;;;;81.93;20.15;;;8.60;79.30;;;;;;4984279;28;90574;-92
2021/11/04 04:14:04;;;;;;;110.35;22.60;;;8.70;79.20;;;;;;4983840;28;91351;-92
2021/11/04 04:16:31;;;;;;;89.05;22.67;;;8.70;79.00;;;;;;5000638;28;89493;-92
2021/11/04 04:18:58;;;;;;;94.22;22.02;;;8.70;79.00;;;;;;5000613;28;90346;-93
2021/11/04 04:21:25;;;;;;;111.28;21.92;;;8.80;79.10;;;;;;5000564;28;90593;-93
2021/11/04 04:23:52;;;;;;;77.78;20.30;;;8.80;79.00;;;;;;4984004;28;90211;-92
2021/11/04 04:26:19;;;;;;;76.05;21.23;;;8.80;78.90;;;;;;4999873;28;92224;-93
2021/11/04 04:28:46;;;;;;;72.90;20.17;;;8.80;78.80;;;;;;4983418;28;91610;-93
2021/11/04 04:31:14;;;;;;;58.40;20.17;;;8.80;78.70;;;;;;4983624;28;89525;-92
2021/11/04 04:39:12;;;;;;;57.70;17.33;;;8.80;78.90;;;;;;4998877;28;88452;-92
2021/11/04 04:41:40;;;;;;;105.97;22.65;;;8.70;78.80;;;;;;4983558;28;90619;-92
2021/11/04 04:44:07;;;;;;;65.28;20.27;;;8.70;78.90;;;;;;5000305;28;90432;-92
2021/11/04 04:46:34;;;;;;;72.15;21.20;;;8.70;79.00;;;;;;5000245;28;91340;-93
2021/11/04 04:49:01;;;;;;;79.95;20.90;;;8.80;78.90;;;;;;4983855;28;91973;-92
2021/11/04 04:51:28;;;;;;;77.70;20.98;;;8.80;78.80;;;;;;4984165;28;90671;-92
2021/11/04 04:53:55;;;;;;;92.55;23.02;;;8.90;78.70;;;;;;4983353;28;100044;-93
2021/11/04 04:56:22;;;;;;;115.03;22.85;;;8.90;78.60;;;;;;4983018;28;91837;-92
2021/11/04 04:58:49;;;;;;;99.30;20.88;;;8.90;78.80;;;;;;4983469;28;91894;-93
2021/11/04 05:01:16;;;;;;;82.15;21.27;;;8.80;78.60;;;;;;4983188;28;92021;-92
2021/11/04 05:03:43;;;;;;;86.22;17.92;;;8.90;78.60;;;;;;4983112;28;90585;-93
2021/11/04 05:06:10;;;;;;;66.43;18.17;;;8.90;78.40;;;;;;4983015;28;91679;-92
2021/11/04 05:08:37;;;;;;;122.00;20.52;;;8.90;78.30;;;;;;4983351;28;91391;-93
2021/11/04 05:11:04;;;;;;;91.88;18.15;;;8.90;78.80;;;;;;5000163;28;90552;-93
2021/11/04 05:13:31;;;;;;;49.92;15.20;;;8.90;78.10;;;;;;4983804;28;89845;-92
2021/11/04 05:15:59;;;;;;;148.15;18.60;;;8.90;78.00;;;;;;4981963;28;104029;-92
2021/11/04 05:18:26;;;;;;;175.35;19.95;;;8.80;77.80;;;;;;4982236;28;90716;-92
2021/11/04 05:20:53;;;;;;;277.90;26.95;;;8.80;77.50;;;;;;4982741;28;90395;-92
2021/11/04 05:23:21;;;;;;;124.70;23.40;;;8.80;77.40;;;;;;4999084;28;89632;-92
2021/11/04 05:25:48;;;;;;;121.28;19.63;;;8.80;77.40;;;;;;4999378;28;91332;-93
2021/11/04 05:28:15;;;;;;;121.90;20.23;;;8.70;77.50;;;;;;4982100;28;91686;-92
2021/11/04 05:30:42;;;;;;;100.45;18.48;;;8.60;77.60;;;;;;4983462;28;90528;-92
2021/11/04 05:33:10;;;;;;;106.90;18.98;;;8.60;78.20;;;;;;4983099;28;89516;-93
2021/11/04 05:35:37;;;;;;;132.50;19.92;;;8.60;78.40;;;;;;4999854;28;91361;-92
2021/11/04 05:38:04;;;;;;;219.43;25.73;;;8.60;78.30;;;;;;4983604;28;89624;-93
2021/11/04 05:40:34;;;;;;;66.93;15.20;;;8.60;78.10;;;;;;4999756;28;91658;-92
2021/11/04 05:43:02;;;;;;;117.50;17.35;;;8.60;78.60;;;;;;4984936;28;90387;-92
2021/11/04 05:45:29;;;;;;;79.22;15.70;;;8.50;78.10;;;;;;4983319;28;91348;-93
2021/11/04 05:47:56;;;;;;;119.50;17.55;;;8.50;78.30;;;;;;4983525;28;92109;-93
2021/11/04 05:50:23;;;;;;;146.00;19.63;;;8.50;78.60;;;;;;4983063;28;90381;-93
2021/11/04 05:52:50;;;;;;;120.35;18.70;;;8.40;78.60;;;;;;4966711;28;90514;-93
2021/11/04 05:55:18;;;;;;;114.28;18.23;;;8.50;78.80;;;;;;4982788;28;91918;-93
2021/11/04 05:57:45;;;;;;;93.22;17.05;;;8.40;78.60;;;;;;4983005;28;90725;-93
2021/11/04 06:00:12;;;;;;;211.52;20.75;;;8.40;78.60;;;;;;4982127;28;101596;-93
2021/11/04 06:02:40;;;;;;;215.52;21.67;;;8.50;78.60;;;;;;4999209;28;89712;-93
2021/11/04 06:05:07;;;;;;;190.43;18.90;;;8.50;78.60;;;;;;4982180;28;90459;-92
2021/11/04 06:07:34;;;;;;;84.80;16.70;;;8.50;78.30;;;;;;4983263;28;89593;-92
2021/11/04 06:10:03;;;;;;;86.25;15.48;;;8.50;78.30;;;;;;4998690;28;90253;-92
2021/11/04 06:12:30;;;;;;;97.20;17.60;;;8.50;78.50;;;;;;4982498;28;90795;-92
2021/11/04 06:14:57;;;;;;;143.85;20.38;;;8.50;78.50;;;;;;4982693;28;92482;-93
2021/11/04 06:17:24;;;;;;;111.03;15.90;;;8.50;78.40;;;;;;4999177;28;90775;-93
2021/11/04 06:19:51;;;;;;;193.60;23.00;;;8.50;78.20;;;;;;4983051;28;91381;-92
2021/11/04 06:22:18;;;;;;;70.75;15.35;;;8.50;77.90;;;;;;4982564;28;90611;-93
2021/11/04 06:24:45;;;;;;;186.15;21.42;;;8.50;78.50;;;;;;4982975;28;92074;-93
2021/11/04 06:27:12;;;;;;;120.43;19.08;;;8.40;78.00;;;;;;4982803;28;92027;-92
2021/11/04 06:29:39;;;;;;;179.10;27.63;;;8.40;77.90;;;;;;4983298;28;91367;-93
2021/11/04 06:32:06;;;;;;;127.55;20.10;;;8.40;77.90;;;;;;4983346;28;89354;-92
2021/11/04 06:34:33;;;;;;;118.55;20.50;;;8.30;77.90;;;;;;4983127;28;92031;-92
2021/11/04 06:37:00;;;;;;;235.30;27.75;;;8.30;78.10;;;;;;4983206;28;92320;-92
2021/11/04 06:39:28;;;;;;;86.38;17.58;;;8.30;78.10;;;;;;4984434;28;90450;-92
2021/11/04 06:41:55;;;;;;;76.70;17.13;;;8.20;78.10;;;;;;4970105;28;90816;-93
2021/11/04 06:44:22;;;;;;;65.28;16.88;;;8.20;78.00;;;;;;4986974;28;89364;-92
2021/11/04 06:46:50;;;;;;;97.13;18.38;;;8.10;77.90;;;;;;5003949;28;91815;-92
2021/11/04 06:49:20;;;;;;;146.20;21.27;;;8.10;77.70;;;;;;5003801;28;91649;-92
2021/11/04 06:51:48;;;;;;;61.00;15.43;;;8.00;77.80;;;;;;5003255;28;91970;-92
2021/11/04 06:54:17;;;;;;;82.85;16.95;;;8.00;78.30;;;;;;5004301;28;90269;-92
2021/11/04 06:56:46;;;;;;;202.50;24.02;;;8.00;78.40;;;;;;4986847;28;92342;-92
2021/11/04 06:59:17;;;;;;;40.05;14.13;;;8.00;78.40;;;;;;5002544;28;90634;-93
2021/11/04 07:01:58;;;;;;;81.60;21.63;;;8.00;78.50;;;;;;5003441;28;89191;-92
2021/11/04 07:04:35;;;;;;;40.08;14.30;;;8.00;78.60;;;;;;5002076;28;90744;-92
2021/11/04 07:07:13;;;;;;;39.38;14.10;;;8.10;78.60;;;;;;5001636;28;92323;-93
2021/11/04 07:09:42;;;;;;;69.07;15.93;;;8.10;78.50;;;;;;5002195;28;91287;-93
2021/11/04 07:12:11;;;;;;;86.00;16.27;;;8.20;78.50;;;;;;5002345;28;90522;-92
2021/11/04 07:14:41;;;;;;;49.70;16.75;;;8.20;78.40;;;;;;5003653;28;91749;-92
2021/11/04 07:17:11;;;;;;;78.72;17.38;;;8.20;78.40;;;;;;4970046;28;91719;-94
2021/11/04 07:19:39;;;;;;;72.95;16.80;;;8.20;78.30;;;;;;5002491;28;90742;-92
2021/11/04 07:22:25;;;;;;;69.82;17.33;;;8.20;78.00;;;;;;5002140;28;90648;-92
2021/11/04 07:25:03;;;;;;;89.25;18.20;;;8.20;78.30;;;;;;5002135;28;90547;-93
2021/11/04 07:27:45;;;;;;;64.95;14.68;;;8.30;78.20;;;;;;5001627;28;92358;-93
2021/11/04 07:30:17;;;;;;;73.75;15.13;;;8.20;78.10;;;;;;5002351;28;91606;-93
2021/11/04 07:32:51;;;;;;;80.18;13.45;;;8.10;77.80;;;;;;5002378;28;89211;-92
2021/11/04 07:35:35;;;;;;;96.57;15.02;;;7.80;77.70;;;;;;5002579;28;90437;-92
2021/11/04 07:38:05;;;;;;;84.45;13.70;;;7.70;78.60;;;;;;5001868;28;92142;-92
2021/11/04 07:40:33;;;;;;;76.45;12.88;;;7.70;79.10;;;;;;5019219;28;89435;-92
2021/11/04 07:43:00;;;;;;;128.77;16.17;;;7.70;79.20;;;;;;4985378;28;95303;-92
2021/11/04 07:45:29;;;;;;;53.78;12.77;;;7.80;79.20;;;;;;4985701;28;88763;-92
2021/11/04 07:47:57;;;;;;;62.90;12.77;;;7.90;79.10;;;;;;5018590;28;90611;-92
2021/11/04 07:50:27;;;;;;;73.43;11.93;;;8.10;78.90;;;;;;4984816;28;91758;-92
2021/11/04 07:52:54;;;;;;;55.05;12.63;;;8.20;78.50;;;;;;5002030;28;90794;-93
2021/11/04 07:55:21;;;;;;;114.70;13.85;;;8.30;78.10;;;;;;4985208;28;91247;-92
2021/11/04 07:57:49;;;;;;;64.72;11.98;;;8.40;77.10;;;;;;5002656;28;91714;-92
2021/11/04 08:00:19;;;;;;;109.32;13.50;;;8.40;78.00;;;;;;5002798;28;97741;-92
2021/11/04 08:02:46;;;;;;;93.50;15.45;;;8.50;77.40;;;;;;5002541;28;89849;-92
2021/11/04 08:05:17;;;;;;;44.40;11.05;;;8.50;76.90;;;;;;5002814;28;90223;-92
2021/11/04 08:07:45;;;;;;;76.82;13.70;;;8.40;76.30;;;;;;5002897;28;91119;-92
2021/11/04 08:10:14;;;;;;;124.70;16.65;;;8.40;76.90;;;;;;5002665;28;91189;-91
2021/11/04 08:12:42;;;;;;;77.80;14.65;;;8.50;76.80;;;;;;5002773;28;90477;-92
2021/11/04 08:15:11;;;;;;;98.57;15.65;;;8.50;77.00;;;;;;5004053;28;91497;-92
2021/11/04 08:17:39;;;;;;;106.72;14.57;;;8.70;76.70;;;;;;5003393;28;91853;-92
2021/11/04 08:20:08;;;;;;;77.32;14.13;;;8.70;76.20;;;;;;5001845;28;91660;-92
2021/11/04 08:22:35;;;;;;;40.30;12.70;;;8.70;76.80;;;;;;5002049;28;89403;-93
2021/11/04 08:25:05;;;;;;;33.40;12.70;;;8.70;77.10;;;;;;4986781;28;91060;-92
2021/11/04 08:27:32;;;;;;;85.93;16.48;;;8.90;77.10;;;;;;4986690;28;90813;-92
2021/11/04 08:30:00;;;;;;;63.92;13.80;;;9.00;76.70;;;;;;5003929;28;91559;-92
2021/11/04 08:32:27;;;;;;;52.15;12.95;;;9.10;76.10;;;;;;5003172;28;90214;-92
2021/11/04 08:34:55;;;;;;;58.70;11.13;;;9.00;75.90;;;;;;4967027;28;91912;-92
2021/11/04 08:37:23;;;;;;;68.63;12.48;;;9.00;75.80;;;;;;4965322;28;90826;-93
2021/11/04 08:39:50;;;;;;;55.35;12.65;;;8.90;75.80;;;;;;4981620;28;91988;-93
2021/11/04 08:42:17;;;;;;;84.30;13.48;;;9.00;76.10;;;;;;4981817;28;90860;-92
2021/11/04 08:44:44;;;;;;;94.32;14.30;;;9.10;75.70;;;;;;4964871;28;91852;-91
2021/11/04 08:47:11;;;;;;;86.25;12.35;;;9.10;75.50;;;;;;4965338;28;93824;-92
2021/11/04 08:49:40;;;;;;;83.00;13.48;;;9.20;75.30;;;;;;4947358;28;90317;-92
2021/11/04 08:52:08;;;;;;;78.93;14.25;;;9.20;74.90;;;;;;4981026;28;89680;-93
2021/11/04 08:54:36;;;;;;;49.75;13.98;;;9.10;74.80;;;;;;4950015;28;91440;-93
2021/11/04 08:57:04;;;;;;;60.67;12.95;;;9.30;75.50;;;;;;4966900;28;91501;-92
2021/11/04 08:59:31;;;;;;;60.95;13.68;;;9.30;75.30;;;;;;4966554;28;90273;-92
2021/11/04 09:01:58;;;;;;;50.28;13.30;;;9.30;75.50;;;;;;4950962;28;88350;-92
2021/11/04 09:04:26;;;;;;;70.30;14.43;;;9.30;74.60;;;;;;4970084;28;89291;-92
2021/11/04 09:06:54;;;;;;;50.65;12.93;;;9.20;74.60;;;;;;4991322;28;90666;-92
2021/11/04 09:09:22;;;;;;;73.32;12.73;;;9.30;75.40;;;;;;4990220;28;90819;-92
2021/11/04 09:11:50;;;;;;;41.80;12.27;;;9.30;74.90;;;;;;4991165;28;90692;-92
2021/11/04 09:14:17;;;;;;;84.93;15.30;;;9.40;75.40;;;;;;4990503;28;91544;-92
2021/11/04 09:16:44;;;;;;;47.25;13.40;;;9.50;75.40;;;;;;4974271;28;92085;-92
2021/11/04 09:19:11;;;;;;;82.85;15.95;;;9.40;74.60;;;;;;4959817;28;90201;-93
2021/11/04 09:21:38;;;;;;;41.28;13.15;;;9.50;75.00;;;;;;4974544;28;89309;-92
2021/11/04 09:24:05;;;;;;;47.17;14.45;;;9.30;74.60;;;;;;4973925;28;90496;-93
2021/11/04 09:26:37;;;;;;;44.17;14.40;;;9.40;75.10;;;;;;4989943;28;89716;-92
2021/11/04 09:29:05;;;;;;;89.00;16.13;;;9.50;75.10;;;;;;4971907;28;90562;-93
2021/11/04 09:31:33;;;;;;;43.58;13.48;;;9.60;74.90;;;;;;4972679;28;90831;-92
2021/11/04 09:34:00;;;;;;;35.22;13.13;;;9.60;75.00;;;;;;4971774;28;91271;-91
2021/11/04 09:36:29;;;;;;;33.08;12.93;;;9.60;75.10;;;;;;4988906;28;91830;-92
2021/11/04 09:38:58;;;;;;;47.45;13.95;;;9.70;75.10;;;;;;4972544;28;91693;-93
2021/11/04 09:41:27;;;;;;;43.42;13.55;;;9.80;74.80;;;;;;4989382;28;90325;-92
2021/11/04 09:43:58;;;;;;;92.90;14.95;;;9.80;74.40;;;;;;4982106;28;90631;-92
2021/11/04 09:46:25;;;;;;;36.75;13.98;;;9.80;74.30;;;;;;4970513;28;93344;-92
2021/11/04 09:48:52;;;;;;;46.85;12.85;;;10.00;74.70;;;;;;4971821;28;91335;-93
2021/11/04 09:51:20;;;;;;;41.22;13.15;;;9.90;74.10;;;;;;4972114;28;89316;-91
2021/11/04 09:53:50;;;;;;;41.53;14.02;;;9.80;74.70;;;;;;4972246;28;91901;-92
2021/11/04 09:56:18;;;;;;;33.22;15.15;;;9.90;74.80;;;;;;4972151;28;92677;-91
2021/11/04 09:58:46;;;;;;;42.53;14.35;;;9.80;75.00;;;;;;4972398;28;91256;-92
2021/11/04 10:01:25;;;;;;;41.30;14.82;;;10.10;75.30;;;;;;4971560;28;89667;-92
2021/11/04 10:03:53;;;;;;;30.05;12.35;;;10.20;74.40;;;;;;4983822;28;90331;-92
2021/11/04 10:06:32;;;;;;;23.80;13.05;;;10.20;74.70;;;;;;4984243;28;107334;-92
2021/11/04 10:09:03;;;;;;;25.05;13.13;;;10.20;75.40;;;;;;4966881;28;90298;-92
2021/11/04 10:11:35;;;;;;;23.60;14.10;;;10.20;75.10;;;;;;4963034;28;89836;-92
2021/11/04 10:14:05;;;;;;;21.05;12.27;;;10.30;75.00;;;;;;4979491;28;90816;-92
2021/11/04 10:16:33;;;;;;;22.67;13.25;;;10.20;74.60;;;;;;4980070;28;91233;-92
2021/11/04 10:19:12;;;;;;;17.25;11.77;;;10.20;75.10;;;;;;4964262;28;90246;-92
2021/11/04 10:21:52;;;;;;;27.02;12.93;;;10.30;75.30;;;;;;4978506;28;89750;-92
2021/11/04 10:24:22;;;;;;;23.58;14.57;;;10.50;74.40;;;;;;4978183;28;92918;-92
2021/11/04 10:26:54;;;;;;;19.67;13.48;;;10.60;74.60;;;;;;4978863;28;90369;-93
2021/11/04 10:29:26;;;;;;;25.55;13.95;;;10.60;74.10;;;;;;4962767;28;91378;-92
2021/11/04 10:31:56;;;;;;;31.50;14.68;;;10.80;73.70;;;;;;4979135;28;90441;-92
2021/11/04 10:34:27;;;;;;;21.48;13.18;;;10.90;73.20;;;;;;4962431;28;92139;-92
2021/11/04 10:36:55;;;;;;;18.73;12.57;;;10.90;73.30;;;;;;4978574;28;92284;-92
2021/11/04 10:53:23;;;;;;;19.67;14.32;;;11.00;73.30;;;;;;4978454;28;92326;-92
2021/11/04 10:55:56;;;;;;;18.58;13.32;;;11.00;74.00;;;;;;4978361;28;91883;-92
2021/11/04 10:58:28;;;;;;;18.83;14.73;;;11.00;72.90;;;;;;4978585;28;91073;-92
2021/11/04 11:00:56;;;;;;;19.52;15.38;;;11.00;73.30;;;;;;4978475;28;90588;-92
2021/11/04 11:03:24;;;;;;;23.30;15.95;;;11.20;73.00;;;;;;4961781;28;103279;-92
2021/11/04 11:05:55;;;;;;;20.77;15.32;;;11.30;73.00;;;;;;4961318;28;91332;-92
2021/11/04 11:08:26;;;;;;;21.63;16.80;;;11.50;72.60;;;;;;4962724;28;90904;-92
2021/11/04 11:10:53;;;;;;;24.60;17.45;;;11.60;72.30;;;;;;4978299;28;89206;-92
2021/11/04 11:13:23;;;;;;;21.30;15.27;;;11.80;72.10;;;;;;4978400;28;92041;-92
2021/11/04 11:15:55;;;;;;;18.77;14.77;;;12.00;71.70;;;;;;4977479;28;90363;-92
2021/11/04 11:18:24;;;;;;;19.30;15.20;;;12.00;71.10;;;;;;4977585;28;90178;-92
2021/11/04 11:20:52;;;;;;;22.67;15.32;;;12.00;71.30;;;;;;4961225;28;92263;-92
2021/11/04 11:23:25;;;;;;;18.65;14.15;;;12.10;71.30;;;;;;4961669;28;92763;-92
2021/11/04 11:26:00;;;;;;;22.00;15.48;;;12.20;71.40;;;;;;4961842;28;91660;-92
2021/11/04 11:28:32;;;;;;;19.92;14.73;;;12.20;71.40;;;;;;4964964;28;89716;-92
2021/11/04 11:31:08;;;;;;;19.30;13.77;;;12.20;70.90;;;;;;4980999;28;91518;-92
2021/11/04 11:34:16;;;;;;;21.67;14.43;;;12.30;70.90;;;;;;4981196;28;92558;-92
2021/11/04 11:37:23;;;;;;;19.85;15.15;;;12.40;71.20;;;;;;4980305;28;90679;-91
2021/11/04 11:44:46;;;;;;;15.55;11.48;;;12.60;70.80;;;;;;4980753;28;91278;-93
2021/11/04 11:47:17;;;;;;;15.55;11.88;;;12.60;69.50;;;;;;4963996;28;92278;-93
2021/11/04 11:49:46;;;;;;;17.02;12.48;;;12.80;70.20;;;;;;4980419;28;90290;-92
2021/11/04 11:52:44;;;;;;;14.00;11.20;;;12.80;69.20;;;;;;4964101;28;89627;-92
2021/11/04 11:55:14;;;;;;;13.55;11.70;;;12.70;69.10;;;;;;4981237;28;91463;-93
2021/11/04 11:58:31;;;;;;;14.52;11.52;;;12.50;69.10;;;;;;4964810;28;90772;-93
2021/11/04 12:01:01;;;;;;;16.77;12.70;;;12.70;69.50;;;;;;4955847;28;90318;-92
2021/11/04 12:03:41;;;;;;;15.05;11.70;;;12.70;69.80;;;;;;4980714;28;89943;-92
2021/11/04 12:06:20;;;;;;;14.80;12.40;;;12.60;70.60;;;;;;4981511;28;90951;-92
2021/11/04 12:08:49;;;;;;;13.40;9.85;;;12.70;70.20;;;;;;4982146;28;90609;-93
2021/11/04 12:11:35;;;;;;;11.75;9.88;;;12.70;69.30;;;;;;4981799;28;91712;-92
2021/11/04 12:14:33;;;;;;;12.77;9.90;;;12.70;69.60;;;;;;4982552;28;89199;-93
2021/11/04 12:19:48;;;;;;;14.40;10.82;;;12.70;70.00;;;;;;4980936;28;92246;-90
2021/11/04 12:22:39;;;;;;;15.00;11.18;;;12.80;69.80;;;;;;4968876;28;91731;-93
2021/11/04 12:25:09;;;;;;;15.10;11.52;;;12.70;70.00;;;;;;4964118;28;90807;-92
2021/11/04 12:27:40;;;;;;;12.43;11.10;;;12.80;70.20;;;;;;4980562;28;91657;-93
2021/11/04 12:30:19;;;;;;;12.73;11.38;;;12.80;69.80;;;;;;4963690;28;91734;-93
2021/11/04 12:33:16;;;;;;;12.85;10.80;;;12.90;69.90;;;;;;4964361;28;90526;-92
2021/11/04 12:35:53;;;;;;;13.55;11.02;;;12.90;69.10;;;;;;4955247;28;90853;-92
2021/11/04 12:38:48;;;;;;;11.00;9.68;;;12.90;69.20;;;;;;4979018;28;91144;-93
2021/11/04 12:41:18;;;;;;;12.32;10.52;;;12.90;67.90;;;;;;4959765;28;91320;-93
2021/11/04 12:43:46;;;;;;;10.68;9.40;;;12.70;67.70;;;;;;4978906;28;98142;-93
2021/11/04 12:46:17;;;;;;;11.23;8.95;;;12.60;68.60;;;;;;4980191;28;90450;-93
2021/11/04 12:48:48;;;;;;;11.80;9.95;;;12.40;68.90;;;;;;4980580;28;90299;-92
2021/11/04 12:51:20;;;;;;;10.70;9.60;;;12.40;69.80;;;;;;4981045;28;91069;-92
2021/11/04 12:53:58;;;;;;;13.90;10.18;;;12.50;70.00;;;;;;4964339;28;89965;-93
2021/11/04 12:57:04;;;;;;;13.50;9.93;;;12.70;69.90;;;;;;4964990;28;90330;-92
2021/11/04 12:59:32;;;;;;;10.55;9.10;;;12.80;69.60;;;;;;4956550;28;91351;-92
2021/11/04 13:02:12;;;;;;;9.35;7.93;;;12.70;68.40;;;;;;4981253;28;91392;-93
2021/11/04 13:05:13;;;;;;;11.68;9.43;;;12.70;67.30;;;;;;4981413;28;89770;-93
2021/11/04 13:07:57;;;;;;;13.15;9.90;;;12.70;69.20;;;;;;4981851;28;89496;-92
2021/11/04 13:10:28;;;;;;;10.20;8.82;;;12.70;69.50;;;;;;4981300;28;91751;-93
2021/11/04 13:13:00;;;;;;;10.95;8.25;;;12.80;69.10;;;;;;4981024;28;91593;-92
2021/11/04 13:15:29;;;;;;;9.15;7.93;;;12.80;68.90;;;;;;4997274;28;88382;-93
2021/11/04 13:17:59;;;;;;;7.43;6.57;;;12.70;68.40;;;;;;4981019;28;89694;-92
2021/11/04 13:20:37;;;;;;;6.82;5.75;;;12.80;67.30;;;;;;4980557;28;90987;-93
2021/11/04 13:23:13;;;;;;;8.18;6.28;;;12.70;66.40;;;;;;4955936;28;89871;-92
2021/11/04 13:25:49;;;;;;;9.98;7.15;;;12.60;67.10;;;;;;4980697;28;89163;-93
2021/11/04 13:28:20;;;;;;;8.63;7.30;;;12.70;67.90;;;;;;4997335;28;88877;-92
2021/11/04 13:30:51;;;;;;;8.35;6.85;;;12.70;67.90;;;;;;4981082;28;91708;-92
2021/11/04 13:33:51;;;;;;;10.65;6.25;;;12.80;68.00;;;;;;4977508;28;90909;-92